Home > Products > Valid Products > TAF

000
FTUS43 KLOT 200500
TAFGYY
TAF
KGYY 200538Z 2006/2106 00000KT P6SM OVC025
     FM201500 21004KT P6SM BKN035
     FM202300 18003KT P6SM SCT025 BKN035=



000
FTUS43 KLOT 200500
TAFORD
TAF
KORD 200538Z 2006/2112 VRB02KT P6SM BKN025 OVC035
     FM201400 21004KT P6SM BKN035
     FM202300 18003KT P6SM SCT025 BKN035
     FM210600 17003KT P6SM SCT015 BKN025=



000
FTUS43 KLOT 200500
TAFMDW
TAF
KMDW 200538Z 2006/2106 20003KT P6SM BKN025 OVC035
     FM201400 21004KT P6SM BKN035
     FM202300 18003KT P6SM SCT025 BKN035=



000
FTUS43 KLOT 200500
TAFDPA
TAF
KDPA 200538Z 2006/2106 00000KT P6SM BKN022 OVC035
     FM201000 00000KT 5SM HZ SCT025 BKN035
     FM201400 21004KT P6SM BKN035
     FM202300 18003KT P6SM SCT025 BKN035=



000
FTUS43 KLOT 200500
TAFGYY
TAF
KGYY 200538Z 2006/2106 00000KT P6SM OVC025
     FM201500 21004KT P6SM BKN035
     FM202300 18003KT P6SM SCT025 BKN035=



000
FTUS43 KLOT 200500
TAFRFD
TAF
KRFD 200538Z 2006/2106 00000KT P6SM FEW015 BKN035 OVC200
     FM201500 17004KT P6SM BKN025
     FM210200 16005KT 6SM HZ OVC015=



000
FTUS43 KLOT 200200 AAA
TAFMDW
TAF AMD
KMDW 200259Z 2003/2024 00000KT P6SM OVC025
     FM201500 21003KT P6SM BKN030=



000
FTUS43 KLOT 200200 AAA
TAFDPA
TAF AMD
KDPA 200259Z 2003/2024 00000KT P6SM OVC025
     FM201500 20003KT P6SM BKN030=



000
FTUS43 KLOT 200200 AAA
TAFORD
TAF AMD
KORD 200259Z 2003/2106 00000KT P6SM OVC025
     FM201500 22003KT P6SM BKN030=



000
FTUS43 KLOT 200200 AAA
TAFGYY
TAF AMD
KGYY 200259Z 2003/2024 00000KT P6SM OVC025
     FM201500 21004KT P6SM BKN030=



000
FTUS43 KLOT 200200 AAA
TAFGYY
TAF AMD
KGYY 200259Z 2003/2024 00000KT P6SM OVC025
     FM201500 21004KT P6SM BKN030=



000
FTUS43 KLOT 200200 AAA
TAFRFD
TAF AMD
KRFD 200259Z 2003/2024 00000KT P6SM OVC015
     FM200800 00000KT P6SM SCT015 BKN035
     FM201600 17003KT P6SM BKN030=



000
FTUS43 KLOT 192300
TAFGYY
TAF
KGYY 192330Z 2000/2024 00000KT P6SM OVC030
     FM200600 00000KT P6SM OVC020
     FM201600 22004KT P6SM BKN030=



000
FTUS43 KLOT 192300
TAFDPA
TAF
KDPA 192330Z 2000/2024 00000KT P6SM OVC025
     FM200400 00000KT P6SM OVC018
     FM201600 22004KT P6SM BKN025=



000
FTUS43 KLOT 192300
TAFGYY
TAF
KGYY 192330Z 2000/2024 00000KT P6SM OVC030
     FM200600 00000KT P6SM OVC020
     FM201600 22004KT P6SM BKN030=



000
FTUS43 KLOT 192300
TAFORD
TAF
KORD 192330Z 2000/2106 00000KT P6SM OVC025
     FM200600 00000KT P6SM OVC020
     FM201500 22004KT P6SM BKN030=



000
FTUS43 KLOT 192300
TAFMDW
TAF
KMDW 192330Z 2000/2024 00000KT P6SM OVC025
     FM200600 00000KT P6SM OVC020
     FM201600 22004KT P6SM BKN030=



000
FTUS43 KLOT 192300
TAFRFD
TAF
KRFD 192330Z 2000/2024 00000KT P6SM OVC015
     FM201600 17003KT P6SM BKN025=



000
FTUS43 KLOT 192200 AAB
TAFGYY
TAF AMD
KGYY 192202Z 1922/2018 25003KT P6SM OVC030
     FM200200 00000KT P6SM BKN015
     FM201600 20003KT P6SM OVC020=



000
FTUS43 KLOT 192200 AAB
TAFGYY
TAF AMD
KGYY 192202Z 1922/2018 25003KT P6SM OVC030
     FM200200 00000KT P6SM BKN015
     FM201600 20003KT P6SM OVC020=



000
FTUS43 KLOT 192200 AAB
TAFDPA
TAF AMD
KDPA 192202Z 1922/2018 27003KT P6SM OVC025
     FM200200 00000KT P6SM BKN015
     FM201600 20003KT P6SM OVC020=



000
FTUS43 KLOT 192200 AAB
TAFMDW
TAF AMD
KMDW 192202Z 1922/2018 23003KT P6SM OVC025
     FM200200 00000KT P6SM BKN015
     FM201600 21003KT P6SM OVC020=



000
FTUS43 KLOT 192200 AAB
TAFORD
TAF AMD
KORD 192202Z 1922/2024 21003KT P6SM OVC025
     FM200200 00000KT P6SM BKN015
     FM201600 21003KT P6SM OVC020=



000
FTUS43 KLOT 192200 AAB
TAFRFD
TAF AMD
KRFD 192202Z 1922/2018 VRB03KT P6SM OVC015
     FM200100 VRB02KT P6SM OVC020
     FM201100 17003KT P6SM OVC012=



000
FTUS43 KLOT 192000 AAA
TAFMDW
TAF AMD
KMDW 192000Z 1920/2018 35003KT P6SM BKN025
     FM200200 00000KT P6SM BKN015
     FM201600 21003KT P6SM OVC020=



000
FTUS43 KLOT 192000 AAA
TAFGYY
TAF AMD
KGYY 192000Z 1920/2018 VRB03KT P6SM BKN025
     FM200200 00000KT P6SM BKN015
     FM201600 20003KT P6SM OVC020=



000
FTUS43 KLOT 192000 AAA
TAFORD
TAF AMD
KORD 192000Z 1920/2024 35003KT P6SM BKN025
     FM200200 00000KT P6SM BKN015
     FM201600 21003KT P6SM OVC020=



000
FTUS43 KLOT 192000 AAA
TAFDPA
TAF AMD
KDPA 192000Z 1920/2018 VRB03KT P6SM BKN025
     FM200200 00000KT P6SM BKN015
     FM201600 20003KT P6SM OVC020=



000
FTUS43 KLOT 192000 AAA
TAFRFD
TAF AMD
KRFD 192000Z 1920/2018 VRB03KT P6SM OVC015
     FM200100 VRB02KT P6SM OVC020
     FM201100 17003KT P6SM OVC012=



000
FTUS43 KLOT 192000 AAA
TAFORD
TAF AMD
KORD 192000Z 1920/2024 35003KT P6SM BKN025
     FM200200 00000KT P6SM BKN015
     FM201600 21003KT P6SM OVC020=



000
FTUS43 KLOT 192000 AAA
TAFGYY
TAF AMD
KGYY 192000Z 1920/2018 VRB03KT P6SM BKN025
     FM200200 00000KT P6SM BKN015
     FM201600 20003KT P6SM OVC020=



000
FTUS43 KLOT 192000 AAA
TAFMDW
TAF AMD
KMDW 192000Z 1920/2018 35003KT P6SM BKN025
     FM200200 00000KT P6SM BKN015
     FM201600 21003KT P6SM OVC020=



000
FTUS43 KLOT 192000 AAA
TAFGYY
TAF AMD
KGYY 192000Z 1920/2018 VRB03KT P6SM BKN025
     FM200200 00000KT P6SM BKN015
     FM201600 20003KT P6SM OVC020=



000
FTUS43 KLOT 192000 AAA
TAFDPA
TAF AMD
KDPA 192000Z 1920/2018 VRB03KT P6SM BKN025
     FM200200 00000KT P6SM BKN015
     FM201600 20003KT P6SM OVC020=



000
FTUS43 KLOT 192000 AAA
TAFRFD
TAF AMD
KRFD 192000Z 1920/2018 VRB03KT P6SM OVC015
     FM200100 VRB02KT P6SM OVC020
     FM201100 17003KT P6SM OVC012=



000
FTUS43 KLOT 191700
TAFORD
TAF
KORD 191730Z 1918/2024 35003KT P6SM BKN025
     FM200200 00000KT P6SM BKN015
     FM201600 21003KT P6SM OVC020=



000
FTUS43 KLOT 191700
TAFMDW
TAF
KMDW 191730Z 1918/2018 35003KT P6SM BKN025
     FM200200 00000KT P6SM BKN015
     FM201600 21003KT P6SM OVC020=



000
FTUS43 KLOT 191700
TAFDPA
TAF
KDPA 191730Z 1918/2018 35003KT P6SM BKN025
     FM200200 00000KT P6SM BKN015
     FM201600 20003KT P6SM OVC020=



000
FTUS43 KLOT 191700
TAFGYY
TAF
KGYY 191730Z 1918/2018 35003KT P6SM BKN025
     FM200200 00000KT P6SM BKN015
     FM201600 20003KT P6SM OVC020=



000
FTUS43 KLOT 191700
TAFGYY
TAF
KGYY 191730Z 1918/2018 35003KT P6SM BKN025
     FM200200 00000KT P6SM BKN015
     FM201600 20003KT P6SM OVC020=



000
FTUS43 KLOT 191700
TAFRFD
TAF
KRFD 191730Z 1918/2018 VRB03KT P6SM OVC015
     FM200100 VRB02KT P6SM OVC020
     FM201100 17003KT P6SM OVC012=



000
FTUS43 KLOT 191600 AAB
TAFMDW
TAF AMD
KMDW 191608Z 1916/2012 33003KT P6SM BKN028
     FM200200 00000KT P6SM OVC025
     FM200800 21004KT P6SM OVC020=



000
FTUS43 KLOT 191600 AAB
TAFRFD
TAF AMD
KRFD 191608Z 1916/2012 00000KT P6SM OVC015
     FM191800 VRB02KT P6SM BKN020
     FM200100 17002KT P6SM OVC020=



000
FTUS43 KLOT 191600 AAB
TAFDPA
TAF AMD
KDPA 191608Z 1916/2012 VRB03KT P6SM BKN028
     FM200200 00000KT P6SM OVC025
     FM200800 21004KT P6SM OVC020=



000
FTUS43 KLOT 191600 AAB
TAFORD
TAF AMD
KORD 191608Z 1916/2018 VRB03KT P6SM BKN028
     FM200200 00000KT P6SM OVC025
     FM200800 21004KT P6SM OVC020=



000
FTUS43 KLOT 191600 AAB
TAFGYY
TAF AMD
KGYY 191608Z 1916/2012 33005KT P6SM BKN028
     FM200200 00000KT P6SM OVC025
     FM200800 21004KT P6SM OVC020=



000
FTUS43 KLOT 191600 AAB
TAFGYY
TAF AMD
KGYY 191608Z 1916/2012 33005KT P6SM BKN028
     FM200200 00000KT P6SM OVC025
     FM200800 21004KT P6SM OVC020=



000
FTUS43 KLOT 191600 AAB
TAFDPA
TAF AMD
KDPA 191608Z 1916/2012 VRB03KT P6SM BKN028
     FM200200 00000KT P6SM OVC025
     FM200800 21004KT P6SM OVC020=



000
FTUS43 KLOT 191600 AAB
TAFMDW
TAF AMD
KMDW 191608Z 1916/2012 33003KT P6SM BKN028
     FM200200 00000KT P6SM OVC025
     FM200800 21004KT P6SM OVC020=



000
FTUS43 KLOT 191600 AAB
TAFGYY
TAF AMD
KGYY 191608Z 1916/2012 33005KT P6SM BKN028
     FM200200 00000KT P6SM OVC025
     FM200800 21004KT P6SM OVC020=



000
FTUS43 KLOT 191600 AAB
TAFRFD
TAF AMD
KRFD 191608Z 1916/2012 00000KT P6SM OVC015
     FM191800 VRB02KT P6SM BKN020
     FM200100 17002KT P6SM OVC020=



000
FTUS43 KLOT 191600 AAB
TAFORD
TAF AMD
KORD 191608Z 1916/2018 VRB03KT P6SM BKN028
     FM200200 00000KT P6SM OVC025
     FM200800 21004KT P6SM OVC020=



000
FTUS43 KLOT 191600 AAB
TAFGYY
TAF AMD
KGYY 191608Z 1916/2012 33005KT P6SM BKN028
     FM200200 00000KT P6SM OVC025
     FM200800 21004KT P6SM OVC020=



000
FTUS43 KLOT 191400 AAA
TAFGYY
TAF AMD
KGYY 191412Z 1914/2012 28005KT P6SM FEW015 OVC025
     FM191600 33005KT P6SM BKN030
     FM200200 00000KT P6SM OVC025
     FM200800 21004KT P6SM OVC020=



000
FTUS43 KLOT 191400 AAA
TAFRFD
TAF AMD
KRFD 191412Z 1914/2012 32003KT P6SM OVC013
     FM191600 00000KT P6SM OVC020
     FM191800 VRB02KT P6SM BKN025
     FM200100 17002KT P6SM OVC020=



000
FTUS43 KLOT 191400 AAA
TAFMDW
TAF AMD
KMDW 191412Z 1914/2012 33005KT P6SM FEW015 OVC025
     FM191600 33003KT P6SM BKN030
     FM200200 00000KT P6SM OVC025
     FM200800 21004KT P6SM OVC020=



000
FTUS43 KLOT 191400 AAA
TAFDPA
TAF AMD
KDPA 191412Z 1914/2012 35006KT P6SM OVC025
     FM191600 VRB03KT P6SM BKN030
     FM200200 00000KT P6SM OVC025
     FM200800 21004KT P6SM OVC020=



000
FTUS43 KLOT 191400 AAA
TAFORD
TAF AMD
KORD 191412Z 1914/2018 35004KT P6SM FEW015 OVC025
     FM191600 VRB03KT P6SM BKN030
     FM200200 00000KT P6SM OVC025
     FM200800 21004KT P6SM OVC020=



000
FTUS43 KLOT 191400 AAA
TAFGYY
TAF AMD
KGYY 191412Z 1914/2012 28005KT P6SM FEW015 OVC025
     FM191600 33005KT P6SM BKN030
     FM200200 00000KT P6SM OVC025
     FM200800 21004KT P6SM OVC020=



000
FTUS43 KLOT 191100
TAFGYY
TAF
KGYY 191124Z 1912/2012 28005KT P6SM FEW015 OVC025
     FM191600 33005KT P6SM BKN030
     FM200200 00000KT P6SM OVC025
     FM200800 21004KT P6SM OVC020=



000
FTUS43 KLOT 191100
TAFRFD
TAF
KRFD 191124Z 1912/2012 32003KT P6SM OVC013
     FM191500 00000KT P6SM OVC020
     FM191700 VRB02KT P6SM BKN025
     FM200100 17002KT P6SM OVC020=



000
FTUS43 KLOT 191100
TAFMDW
TAF
KMDW 191124Z 1912/2012 32005KT P6SM FEW015 OVC025
     FM191600 33003KT P6SM BKN030
     FM200200 00000KT P6SM OVC025
     FM200800 21004KT P6SM OVC020=



000
FTUS43 KLOT 191100
TAFDPA
TAF
KDPA 191124Z 1912/2012 28006KT P6SM OVC025
     FM191600 VRB03KT P6SM BKN030
     FM200200 00000KT P6SM OVC025
     FM200800 21004KT P6SM OVC020=



000
FTUS43 KLOT 191100
TAFORD
TAF
KORD 191124Z 1912/2018 34004KT P6SM FEW015 OVC025
     FM191600 VRB03KT P6SM BKN030
     FM200200 00000KT P6SM OVC025
     FM200800 21004KT P6SM OVC020=



000
FTUS43 KLOT 191100
TAFGYY
TAF
KGYY 191124Z 1912/2012 28005KT P6SM FEW015 OVC025
     FM191600 33005KT P6SM BKN030
     FM200200 00000KT P6SM OVC025
     FM200800 21004KT P6SM OVC020=



000
FTUS43 KLOT 191000 AAB
TAFGYY
TAF AMD
KGYY 191007Z 1910/2006 28005KT P6SM SCT015 OVC025
      TEMPO 1910/1912 -SN
     FM191600 33005KT P6SM BKN030
     FM200200 00000KT P6SM OVC025=



000
FTUS43 KLOT 191000 AAB
TAFGYY
TAF AMD
KGYY 191007Z 1910/2006 28005KT P6SM SCT015 OVC025
      TEMPO 1910/1912 -SN
     FM191600 33005KT P6SM BKN030
     FM200200 00000KT P6SM OVC025=



000
FTUS43 KLOT 191000 AAB
TAFGYY
TAF AMD
KGYY 191007Z 1910/2006 28005KT P6SM SCT015 OVC025
      TEMPO 1910/1912 -SN
     FM191600 33005KT P6SM BKN030
     FM200200 00000KT P6SM OVC025=



000
FTUS43 KLOT 191000 AAB
TAFGYY
TAF AMD
KGYY 191007Z 1910/2006 28005KT P6SM SCT015 OVC025
      TEMPO 1910/1912 -SN
     FM191600 33005KT P6SM BKN030
     FM200200 00000KT P6SM OVC025=



000
FTUS43 KLOT 191000 AAB
TAFMDW
TAF AMD
KMDW 191006Z 1910/2006 32005KT P6SM SCT015 OVC025
      TEMPO 1910/1911 -SN
     FM191600 33003KT P6SM BKN030
     FM200200 00000KT P6SM OVC025=



000
FTUS43 KLOT 191000 AAB
TAFMDW
TAF AMD
KMDW 191006Z 1910/2006 32005KT P6SM SCT015 OVC025
      TEMPO 1910/1911 -SN
     FM191600 33003KT P6SM BKN030
     FM200200 00000KT P6SM OVC025=



000
FTUS43 KLOT 191000 AAB
TAFORD
TAF AMD
KORD 191006Z 1910/2012 32005KT P6SM OVC025
     FM191600 VRB03KT P6SM BKN030
     FM200200 00000KT P6SM OVC025=



000
FTUS43 KLOT 191000 AAB
TAFORD
TAF AMD
KORD 191006Z 1910/2012 32005KT P6SM OVC025
     FM191600 VRB03KT P6SM BKN030
     FM200200 00000KT P6SM OVC025=



000
FTUS43 KLOT 190900 AAA
TAFGYY
TAF AMD
KGYY 190906Z 1909/2006 28005KT P6SM SCT015 OVC025
      TEMPO 1909/1912 -SN BKN015
     FM191600 33005KT P6SM BKN030
     FM200200 00000KT P6SM OVC025=



000
FTUS43 KLOT 190900 AAA
TAFMDW
TAF AMD
KMDW 190906Z 1909/2006 32005KT P6SM SCT015 OVC025
      TEMPO 1909/1911 -SN BKN015
     FM191600 33003KT P6SM BKN030
     FM200200 00000KT P6SM OVC025=



000
FTUS43 KLOT 190900 AAA
TAFDPA
TAF AMD
KDPA 190906Z 1909/2006 28006KT P6SM SCT015 OVC023
     FM191600 VRB03KT P6SM BKN030
     FM200200 00000KT P6SM OVC025=



000
FTUS43 KLOT 190900 AAA
TAFORD
TAF AMD
KORD 190906Z 1909/2012 32005KT P6SM SCT015 OVC025
      TEMPO 1909/1910 5SM -SN BKN015
     FM191600 VRB03KT P6SM BKN030
     FM200200 00000KT P6SM OVC025=



000
FTUS43 KLOT 190900 AAA
TAFGYY
TAF AMD
KGYY 190906Z 1909/2006 28005KT P6SM SCT015 OVC025
      TEMPO 1909/1912 -SN BKN015
     FM191600 33005KT P6SM BKN030
     FM200200 00000KT P6SM OVC025=



000
FTUS43 KLOT 190900 AAB
TAFRFD
TAF AMD
KRFD 190906Z 1909/2006 32003KT P6SM OVC016
     FM191700 VRB02KT P6SM BKN030
     FM200100 17002KT P6SM OVC025=



000
FTUS43 KLOT 190800 AAA
TAFRFD
TAF AMD
KRFD 190810Z 1908/2006 32003KT P6SM OVC018
     FM191700 VRB02KT P6SM BKN030
     FM200100 17002KT P6SM OVC025=



000
FTUS43 KLOT 190500
TAFGYY
TAF
KGYY 190537Z 1906/2006 28005KT P6SM SCT015 OVC025
      TEMPO 1906/1910 -SN BKN015
     FM191600 33005KT P6SM BKN030
     FM200200 00000KT P6SM OVC025=



000
FTUS43 KLOT 190500
TAFRFD
TAF
KRFD 190537Z 1906/2006 31003KT P6SM OVC020
     FM191700 VRB02KT P6SM BKN030
     FM200100 17002KT P6SM OVC025=



000
FTUS43 KLOT 190500
TAFORD
TAF
KORD 190537Z 1906/2012 32005KT P6SM SCT015 OVC025
      TEMPO 1906/1910 -SN BKN015
     FM191600 VRB03KT P6SM BKN030
     FM200200 00000KT P6SM OVC025=



000
FTUS43 KLOT 190500
TAFDPA
TAF
KDPA 190537Z 1906/2006 31005KT P6SM SCT013 OVC023
      TEMPO 1906/1910 -SN BKN013
     FM191600 VRB03KT P6SM BKN030
     FM200200 00000KT P6SM OVC025=



000
FTUS43 KLOT 190500
TAFMDW
TAF
KMDW 190537Z 1906/2006 32005KT P6SM SCT015 OVC025
      TEMPO 1906/1910 6SM -SN BKN015
     FM191600 33003KT P6SM BKN030
     FM200200 00000KT P6SM OVC025=



000
FTUS43 KLOT 190500
TAFGYY
TAF
KGYY 190537Z 1906/2006 28005KT P6SM SCT015 OVC025
      TEMPO 1906/1910 -SN BKN015
     FM191600 33005KT P6SM BKN030
     FM200200 00000KT P6SM OVC025=



000
FTUS43 KLOT 190300 AAA
TAFMDW
TAF AMD
KMDW 190304Z 1903/1924 31005KT P6SM OVC025
     FM190400 32003KT P6SM SCT020 OVC030
     FM191600 34003KT P6SM BKN030
     FM191900 31003KT P6SM OVC025=



000
FTUS43 KLOT 190300 AAA
TAFDPA
TAF AMD
KDPA 190304Z 1903/1924 30005KT P6SM OVC025
     FM190400 32003KT P6SM SCT020 OVC030
     FM191600 34003KT P6SM BKN030
     FM191900 31003KT P6SM OVC025=



000
FTUS43 KLOT 190300 AAA
TAFRFD
TAF AMD
KRFD 190304Z 1903/1924 31005KT P6SM OVC025
     FM190400 32003KT P6SM SCT020 OVC030
     FM191600 34003KT P6SM BKN030
     FM191900 31003KT P6SM OVC025=



000
FTUS43 KLOT 190300 AAA
TAFORD
TAF AMD
KORD 190304Z 1903/2006 32005KT P6SM OVC025
     FM190400 32003KT P6SM SCT020 OVC030
     FM191600 34003KT P6SM BKN030
     FM191900 31003KT P6SM OVC025
     FM200300 VRB04KT P6SM BKN030=



000
FTUS43 KLOT 190300 AAA
TAFGYY
TAF AMD
KGYY 190304Z 1903/1924 30005KT P6SM OVC025
     FM190400 32003KT P6SM SCT020 OVC030
     FM191600 34003KT P6SM BKN030
     FM191900 31003KT P6SM OVC025=



000
FTUS43 KLOT 190300 AAA
TAFGYY
TAF AMD
KGYY 190304Z 1903/1924 30005KT P6SM OVC025
     FM190400 32003KT P6SM SCT020 OVC030
     FM191600 34003KT P6SM BKN030
     FM191900 31003KT P6SM OVC025=



000
FTUS43 KLOT 182300
TAFGYY
TAF
KGYY 182335Z 1900/1924 30005KT P6SM OVC025
     FM190400 32003KT P6SM BKN015 OVC030
     FM191600 34003KT P6SM BKN030
     FM191900 31003KT P6SM OVC025=



000
FTUS43 KLOT 182300
TAFRFD
TAF
KRFD 182335Z 1900/1924 31005KT P6SM OVC025
     FM190400 32003KT P6SM BKN015 OVC030
     FM191600 34003KT P6SM BKN030
     FM191900 31003KT P6SM OVC025=



000
FTUS43 KLOT 182300
TAFDPA
TAF
KDPA 182335Z 1900/1924 30005KT P6SM OVC025
     FM190400 32003KT P6SM BKN015 OVC030
     FM191600 34003KT P6SM BKN030
     FM191900 31003KT P6SM OVC025=



000
FTUS43 KLOT 182300
TAFMDW
TAF
KMDW 182335Z 1900/1924 31005KT P6SM OVC025
     FM190400 32003KT P6SM BKN015 OVC030
     FM191600 34003KT P6SM BKN030
     FM191900 31003KT P6SM OVC025=



000
FTUS43 KLOT 182300
TAFORD
TAF
KORD 182335Z 1900/2006 32005KT P6SM OVC025
     FM190400 32003KT P6SM BKN015 OVC030
     FM191600 34003KT P6SM BKN030
     FM191900 31003KT P6SM OVC025
     FM200300 VRB04KT P6SM BKN030=



000
FTUS43 KLOT 182300
TAFGYY
TAF
KGYY 182335Z 1900/1924 30005KT P6SM OVC025
     FM190400 32003KT P6SM BKN015 OVC030
     FM191600 34003KT P6SM BKN030
     FM191900 31003KT P6SM OVC025=



000
FTUS43 KLOT 182100 AAB
TAFGYY
TAF AMD
KGYY 182157Z 1822/1918 26005KT P6SM OVC025
     FM190100 VRB03KT P6SM BKN015=



000
FTUS43 KLOT 182100 AAB
TAFMDW
TAF AMD
KMDW 182157Z 1822/1918 25005KT P6SM BKN025
     FM190100 30003KT P6SM BKN015=



000
FTUS43 KLOT 182100 AAB
TAFORD
TAF AMD
KORD 182157Z 1822/1924 28005KT P6SM BKN025
     FM190100 30003KT P6SM BKN015=



000
FTUS43 KLOT 182100 AAB
TAFDPA
TAF AMD
KDPA 182157Z 1822/1918 29005KT P6SM BKN025
     FM190100 VRB03KT P6SM BKN015=



000
FTUS43 KLOT 182100 AAB
TAFRFD
TAF AMD
KRFD 182157Z 1822/1918 32004KT P6SM BKN025
     FM190100 VRB03KT P6SM BKN015=



000
FTUS43 KLOT 182000 AAA
TAFGYY
TAF AMD
KGYY 182000Z 1820/1918 VRB05KT P6SM OVC025
     FM190100 VRB03KT P6SM BKN015=



000
FTUS43 KLOT 182000 AAA
TAFRFD
TAF AMD
KRFD 182000Z 1820/1918 30004KT P6SM BKN025
     FM190100 VRB03KT P6SM BKN015=



000
FTUS43 KLOT 182000 AAA
TAFORD
TAF AMD
KORD 182000Z 1820/1924 29005KT P6SM BKN025
     FM190100 30003KT P6SM BKN015=



000
FTUS43 KLOT 182000 AAA
TAFDPA
TAF AMD
KDPA 182000Z 1820/1918 29005KT P6SM BKN025
     FM190100 VRB03KT P6SM BKN015=



000
FTUS43 KLOT 182000 AAA
TAFMDW
TAF AMD
KMDW 182000Z 1820/1918 29005KT P6SM BKN022
     FM190100 30003KT P6SM BKN015=



000
FTUS43 KLOT 181700
TAFRFD
TAF
KRFD 181730Z 1818/1918 27004KT P6SM BKN025
     FM190100 VRB03KT P6SM BKN015=



000
FTUS43 KLOT 181700
TAFGYY
TAF
KGYY 181730Z 1818/1918 28006KT P6SM OVC025
     FM190100 30003KT P6SM BKN015=



000
FTUS43 KLOT 181700
TAFDPA
TAF
KDPA 181730Z 1818/1918 29005KT P6SM BKN025
     FM190100 31003KT P6SM BKN015=



000
FTUS43 KLOT 181700
TAFGYY
TAF
KGYY 181730Z 1818/1918 28006KT P6SM OVC025
     FM190100 30003KT P6SM BKN015=



000
FTUS43 KLOT 181700
TAFORD
TAF
KORD 181730Z 1818/1924 30005KT P6SM BKN025
     FM190100 30003KT P6SM BKN015=



000
FTUS43 KLOT 181700
TAFMDW
TAF
KMDW 181730Z 1818/1918 30005KT P6SM BKN022
     FM190100 30003KT P6SM BKN015=



000
FTUS43 KLOT 181600 AAB
TAFDPA
TAF AMD
KDPA 181606Z 1816/1912 29005KT P6SM SCT020 BKN200
     FM182000 31003KT P6SM BKN020=



000
FTUS43 KLOT 181600 AAB
TAFGYY
TAF AMD
KGYY 181606Z 1816/1912 28006KT P6SM OVC020
     FM182300 30003KT P6SM BKN015=



000
FTUS43 KLOT 181600 AAB
TAFGYY
TAF AMD
KGYY 181606Z 1816/1912 28006KT P6SM OVC020
     FM182300 30003KT P6SM BKN015=



000
FTUS43 KLOT 181600 AAB
TAFMDW
TAF AMD
KMDW 181606Z 1816/1912 30005KT P6SM BKN020
     FM182300 30003KT P6SM BKN015=



000
FTUS43 KLOT 181600 AAB
TAFORD
TAF AMD
KORD 181606Z 1816/1918 30005KT P6SM SCT020 BKN200
     FM181900 31003KT P6SM BKN020=



000
FTUS43 KLOT 181600 AAB
TAFRFD
TAF AMD
KRFD 181606Z 1816/1912 27004KT P6SM BKN020 BKN200
     FM182300 VRB03KT P6SM BKN015=



000
FTUS43 KLOT 181400 AAA
TAFGYY
TAF AMD
KGYY 181401Z 1814/1912 28006KT P6SM OVC020
     FM181600 28006KT P6SM SCT020 BKN100
     FM190000 30003KT P6SM BKN015=



000
FTUS43 KLOT 181400 AAA
TAFRFD
TAF AMD
KRFD 181401Z 1814/1912 27004KT P6SM BKN020 BKN200
     FM181600 30006KT P6SM SCT020 BKN200
     FM190000 VRB03KT P6SM BKN015=



000
FTUS43 KLOT 181400 AAA
TAFGYY
TAF AMD
KGYY 181401Z 1814/1912 28006KT P6SM OVC020
     FM181600 28006KT P6SM SCT020 BKN100
     FM190000 30003KT P6SM BKN015=



000
FTUS43 KLOT 181400 AAA
TAFDPA
TAF AMD
KDPA 181401Z 1814/1912 29005KT P6SM SCT020 BKN200
     FM190000 31003KT P6SM BKN015=



000
FTUS43 KLOT 181400 AAA
TAFGYY
TAF AMD
KGYY 181401Z 1814/1912 28006KT P6SM OVC020
     FM181600 28006KT P6SM SCT020 BKN100
     FM190000 30003KT P6SM BKN015=



000
FTUS43 KLOT 181400 AAA
TAFORD
TAF AMD
KORD 181401Z 1814/1918 30005KT P6SM SCT020 BKN200
     FM190000 31003KT P6SM BKN015=



000
FTUS43 KLOT 181400 AAA
TAFMDW
TAF AMD
KMDW 181401Z 1814/1912 30005KT P6SM BKN020
     FM181600 30005KT P6SM SCT020 BKN200
     FM190000 30003KT P6SM BKN015=



000
FTUS43 KLOT 181400 AAA
TAFORD
TAF AMD
KORD 181401Z 1814/1918 30005KT P6SM SCT020 BKN200
     FM190000 31003KT P6SM BKN015=



000
FTUS43 KLOT 181400 AAA
TAFGYY
TAF AMD
KGYY 181401Z 1814/1912 28006KT P6SM OVC020
     FM181600 28006KT P6SM SCT020 BKN100
     FM190000 30003KT P6SM BKN015=



000
FTUS43 KLOT 181400 AAA
TAFMDW
TAF AMD
KMDW 181401Z 1814/1912 30005KT P6SM BKN020
     FM181600 30005KT P6SM SCT020 BKN200
     FM190000 30003KT P6SM BKN015=



000
FTUS43 KLOT 181400 AAA
TAFRFD
TAF AMD
KRFD 181401Z 1814/1912 27004KT P6SM BKN020 BKN200
     FM181600 30006KT P6SM SCT020 BKN200
     FM190000 VRB03KT P6SM BKN015=



000
FTUS43 KLOT 181400 AAA
TAFDPA
TAF AMD
KDPA 181401Z 1814/1912 29005KT P6SM SCT020 BKN200
     FM190000 31003KT P6SM BKN015=



000
FTUS43 KLOT 181100
TAFMDW
TAF
KMDW 181120Z 1812/1912 30005KT P6SM BKN020
     FM181500 30005KT P6SM SCT020 BKN200
     FM190100 30003KT P6SM BKN015=



000
FTUS43 KLOT 181100
TAFORD
TAF
KORD 181120Z 1812/1918 30005KT P6SM SCT020 BKN200
     FM190100 31003KT P6SM BKN015=



000
FTUS43 KLOT 181100
TAFGYY
TAF
KGYY 181120Z 1812/1912 28006KT P6SM OVC020
     FM181600 28006KT P6SM SCT020 BKN100
     FM190100 30003KT P6SM BKN015=



000
FTUS43 KLOT 181100
TAFGYY
TAF
KGYY 181120Z 1812/1912 28006KT P6SM OVC020
     FM181600 28006KT P6SM SCT020 BKN100
     FM190100 30003KT P6SM BKN015=



000
FTUS43 KLOT 181100
TAFRFD
TAF
KRFD 181120Z 1812/1912 31004KT P6SM SCT020 BKN200
     FM190200 VRB03KT P6SM BKN015=



000
FTUS43 KLOT 181100
TAFDPA
TAF
KDPA 181120Z 1812/1912 30005KT P6SM BKN020
     FM181400 29005KT P6SM SCT020 BKN200
     FM190200 31003KT P6SM BKN015=



000
FTUS43 KLOT 180900 AAA
TAFGYY
TAF AMD
KGYY 180910Z 1809/1906 25006KT P6SM OVC025
     FM181500 31005KT P6SM SCT020 BKN200
     FM190100 30003KT P6SM SCT200=



000
FTUS43 KLOT 180900 AAA
TAFORD
TAF AMD
KORD 180910Z 1809/1912 34005KT P6SM SCT020 BKN200
     FM181200 32005KT P6SM FEW020 BKN200
     FM190100 30003KT P6SM SCT200=



000
FTUS43 KLOT 180900 AAA
TAFDPA
TAF AMD
KDPA 180910Z 1809/1906 34004KT P6SM BKN020
      TEMPO 1810/1811 SCT020 BKN200
     FM181100 31004KT P6SM SCT020 BKN200
     FM190100 VRB03KT P6SM SCT200=



000
FTUS43 KLOT 180900 AAA
TAFDPA
TAF AMD
KDPA 180910Z 1809/1906 34004KT P6SM BKN020
      TEMPO 1810/1811 SCT020 BKN200
     FM181100 31004KT P6SM SCT020 BKN200
     FM190100 VRB03KT P6SM SCT200=



000
FTUS43 KLOT 180900 AAA
TAFRFD
TAF AMD
KRFD 180910Z 1809/1906 36004KT P6SM BKN020
      TEMPO 1810/1811 SCT020 BKN200
     FM181100 33004KT P6SM SCT020 BKN200
     FM190100 VRB03KT P6SM SCT200=



000
FTUS43 KLOT 180900 AAA
TAFRFD
TAF AMD
KRFD 180910Z 1809/1906 36004KT P6SM BKN020
      TEMPO 1810/1811 SCT020 BKN200
     FM181100 33004KT P6SM SCT020 BKN200
     FM190100 VRB03KT P6SM SCT200=



000
FTUS43 KLOT 180900 AAA
TAFMDW
TAF AMD
KMDW 180910Z 1809/1906 32005KT P6SM OVC020
     FM181500 31005KT P6SM SCT020 BKN200
     FM190100 30003KT P6SM SCT200=



000
FTUS43 KLOT 180900 AAA
TAFGYY
TAF AMD
KGYY 180910Z 1809/1906 25006KT P6SM OVC025
     FM181500 31005KT P6SM SCT020 BKN200
     FM190100 30003KT P6SM SCT200=



000
FTUS43 KLOT 180900 AAA
TAFGYY
TAF AMD
KGYY 180910Z 1809/1906 25006KT P6SM OVC025
     FM181500 31005KT P6SM SCT020 BKN200
     FM190100 30003KT P6SM SCT200=



000
FTUS43 KLOT 180900 AAA
TAFORD
TAF AMD
KORD 180910Z 1809/1912 34005KT P6SM SCT020 BKN200
     FM181200 32005KT P6SM FEW020 BKN200
     FM190100 30003KT P6SM SCT200=



000
FTUS43 KLOT 180900 AAA
TAFMDW
TAF AMD
KMDW 180910Z 1809/1906 32005KT P6SM OVC020
     FM181500 31005KT P6SM SCT020 BKN200
     FM190100 30003KT P6SM SCT200=



000
FTUS43 KLOT 180500
TAFGYY
TAF
KGYY 180538Z 1806/1906 29006KT P6SM OVC020
     FM181500 31005KT P6SM SCT020 BKN200
     FM190100 30003KT P6SM SCT200=



000
FTUS43 KLOT 180500
TAFGYY
TAF
KGYY 180538Z 1806/1906 29006KT P6SM OVC020
     FM181500 31005KT P6SM SCT020 BKN200
     FM190100 30003KT P6SM SCT200=



000
FTUS43 KLOT 180500
TAFMDW
TAF
KMDW 180538Z 1806/1906 31007KT P6SM OVC020
     FM181500 31005KT P6SM SCT020 BKN200
     FM190100 30003KT P6SM SCT200=



000
FTUS43 KLOT 180500
TAFDPA
TAF
KDPA 180538Z 1806/1906 30006KT P6SM BKN020
     FM180900 31004KT P6SM SCT020 BKN200
     FM190100 VRB03KT P6SM SCT200=



000
FTUS43 KLOT 180500
TAFRFD
TAF
KRFD 180538Z 1806/1906 30005KT P6SM BKN020
     FM180900 31004KT P6SM SCT020 BKN200
     FM190100 VRB03KT P6SM SCT200=



000
FTUS43 KLOT 180500
TAFORD
TAF
KORD 180538Z 1806/1912 31007KT P6SM BKN020
     FM180900 31005KT P6SM SCT020 BKN200
     FM190100 30003KT P6SM SCT200=



000
FTUS43 KLOT 180200 AAA
TAFGYY
TAF AMD
KGYY 180256Z 1803/1824 30006KT P6SM BKN025
     FM180900 31005KT P6SM SCT025
     FM181500 31005KT P6SM SCT025 BKN200=



000
FTUS43 KLOT 180200 AAA
TAFDPA
TAF AMD
KDPA 180256Z 1803/1824 30006KT P6SM BKN025
     FM180800 31003KT P6SM SCT025
     FM181500 31005KT P6SM SCT025 BKN200=



000
FTUS43 KLOT 180200 AAA
TAFMDW
TAF AMD
KMDW 180256Z 1803/1824 31008KT P6SM BKN025
     FM180800 31005KT P6SM SCT025
     FM181500 31006KT P6SM SCT025 BKN200=



000
FTUS43 KLOT 180200 AAA
TAFGYY
TAF AMD
KGYY 180256Z 1803/1824 30006KT P6SM BKN025
     FM180900 31005KT P6SM SCT025
     FM181500 31005KT P6SM SCT025 BKN200=



000
FTUS43 KLOT 180200 AAA
TAFRFD
TAF AMD
KRFD 180256Z 1803/1824 31006KT P6SM OVC025
     FM180700 31004KT P6SM SCT025
     FM181500 31005KT P6SM SCT025 BKN200=



000
FTUS43 KLOT 180200 AAA
TAFORD
TAF AMD
KORD 180256Z 1803/1906 31008KT P6SM BKN025
     FM180800 31005KT P6SM SCT025
     FM181500 31005KT P6SM SCT025 BKN200=



000
FTUS43 KLOT 172300
TAFDPA
TAF
KDPA 172339Z 1800/1824 30007KT P6SM BKN025
     FM180800 31003KT P6SM SCT025
     FM181500 34005KT P6SM SCT020 BKN200=



000
FTUS43 KLOT 172300
TAFGYY
TAF
KGYY 172339Z 1800/1824 30008KT P6SM BKN020
     FM180800 31005KT P6SM SCT025
     FM181500 34005KT P6SM SCT020 BKN200=



000
FTUS43 KLOT 172300
TAFORD
TAF
KORD 172339Z 1800/1906 30008KT P6SM BKN025
     FM180800 31005KT P6SM SCT025
     FM181500 32005KT P6SM SCT020 BKN200=



000
FTUS43 KLOT 172300
TAFRFD
TAF
KRFD 172339Z 1800/1824 31010KT P6SM OVC025
     FM180400 31004KT P6SM SCT025
     FM181500 34005KT P6SM SCT025 BKN200=



000
FTUS43 KLOT 172300
TAFGYY
TAF
KGYY 172339Z 1800/1824 30008KT P6SM BKN020
     FM180800 31005KT P6SM SCT025
     FM181500 34005KT P6SM SCT020 BKN200=



000
FTUS43 KLOT 172300
TAFMDW
TAF
KMDW 172339Z 1800/1824 30008KT P6SM BKN025
     FM180800 31005KT P6SM SCT025
     FM181500 31006KT P6SM SCT020 BKN200=



000
FTUS43 KLOT 172200 AAB
TAFDPA
TAF AMD
KDPA 172200Z 1722/1818 31011KT P6SM OVC020
     FM180000 30007KT P6SM BKN025
     FM180800 31003KT P6SM SCT020
     FM181500 34004KT P6SM SCT250=



000
FTUS43 KLOT 172200 AAB
TAFORD
TAF AMD
KORD 172200Z 1722/1824 31011KT P6SM OVC025
     FM180000 30008KT P6SM BKN020
     FM180800 31005KT P6SM SCT020
     FM181500 34004KT P6SM SCT250=



000
FTUS43 KLOT 172200 AAB
TAFMDW
TAF AMD
KMDW 172200Z 1722/1818 30011KT P6SM OVC025
     FM180000 30008KT P6SM BKN020
     FM180800 31005KT P6SM SCT020
     FM181500 34004KT P6SM SCT250=



000
FTUS43 KLOT 172200 AAB
TAFRFD
TAF AMD
KRFD 172200Z 1722/1818 31010KT P6SM OVC025
     FM180400 31006KT P6SM SCT025
     FM181500 34004KT P6SM SCT250=



000
FTUS43 KLOT 172200 AAB
TAFGYY
TAF AMD
KGYY 172200Z 1722/1818 28010G18KT P6SM OVC025
     FM180000 30008KT P6SM BKN020
     FM180800 31005KT P6SM SCT020
     FM181500 34004KT P6SM SCT250=



000
FTUS43 KLOT 172200 AAB
TAFRFD
TAF AMD
KRFD 172200Z 1722/1818 31010KT P6SM OVC025
     FM180400 31006KT P6SM SCT025
     FM181500 34004KT P6SM SCT250=



000
FTUS43 KLOT 172200 AAB
TAFDPA
TAF AMD
KDPA 172200Z 1722/1818 31011KT P6SM OVC020
     FM180000 30007KT P6SM BKN025
     FM180800 31003KT P6SM SCT020
     FM181500 34004KT P6SM SCT250=



000
FTUS43 KLOT 172200 AAB
TAFMDW
TAF AMD
KMDW 172200Z 1722/1818 30011KT P6SM OVC025
     FM180000 30008KT P6SM BKN020
     FM180800 31005KT P6SM SCT020
     FM181500 34004KT P6SM SCT250=



000
FTUS43 KLOT 172200 AAB
TAFORD
TAF AMD
KORD 172200Z 1722/1824 31011KT P6SM OVC025
     FM180000 30008KT P6SM BKN020
     FM180800 31005KT P6SM SCT020
     FM181500 34004KT P6SM SCT250=



000
FTUS43 KLOT 172200 AAB
TAFGYY
TAF AMD
KGYY 172200Z 1722/1818 28010G18KT P6SM OVC025
     FM180000 30008KT P6SM BKN020
     FM180800 31005KT P6SM SCT020
     FM181500 34004KT P6SM SCT250=



000
FTUS43 KLOT 171900 AAA
TAFGYY
TAF AMD
KGYY 171954Z 1720/1818 28008G18KT P6SM OVC025
     FM180000 30008KT P6SM BKN020
     FM180800 31005KT P6SM SCT020
     FM181500 34004KT P6SM SCT250=



000
FTUS43 KLOT 171900 AAA
TAFRFD
TAF AMD
KRFD 171954Z 1720/1818 31013G17KT P6SM OVC020
     FM180000 31006KT P6SM SCT020
     FM181500 34004KT P6SM SCT250=



000
FTUS43 KLOT 171900 AAA
TAFMDW
TAF AMD
KMDW 171954Z 1720/1818 27010G15KT P6SM OVC023
     FM180000 30008KT P6SM BKN020
     FM180800 31005KT P6SM SCT020
     FM181500 34004KT P6SM SCT250=



000
FTUS43 KLOT 171900 AAA
TAFDPA
TAF AMD
KDPA 171954Z 1720/1818 30009G15KT P6SM OVC019
     FM180000 30007KT P6SM BKN020
     FM180800 31003KT P6SM SCT020
     FM181500 34004KT P6SM SCT250=



000
FTUS43 KLOT 171900 AAA
TAFORD
TAF AMD
KORD 171954Z 1720/1824 31012G16KT P6SM OVC022
     FM180000 30008KT P6SM BKN020
     FM180800 31005KT P6SM SCT020
     FM181500 34004KT P6SM SCT250=



000
FTUS43 KLOT 171900 AAA
TAFGYY
TAF AMD
KGYY 171954Z 1720/1818 28008G18KT P6SM OVC025
     FM180000 30008KT P6SM BKN020
     FM180800 31005KT P6SM SCT020
     FM181500 34004KT P6SM SCT250=



000
FTUS43 KLOT 171700 RRA
TAFRFD
TAF
KRFD 171742Z 1718/1818 29014G18KT P6SM OVC018
     FM180000 31006KT P6SM SCT020
     FM181500 34004KT P6SM SCT250=



000
FTUS43 KLOT 171700 RRA
TAFMDW
TAF
KMDW 171742Z 1718/1818 27012G16KT P6SM OVC025
     FM180000 30008KT P6SM BKN020
     FM180800 31005KT P6SM SCT020
     FM181500 34004KT P6SM SCT250=



000
FTUS43 KLOT 171700 RRA
TAFGYY
TAF
KGYY 171742Z 1718/1818 28010G15KT P6SM OVC019
     FM180000 30008KT P6SM BKN020
     FM180800 31005KT P6SM SCT020
     FM181500 34004KT P6SM SCT250=



000
FTUS43 KLOT 171700 RRA
TAFGYY
TAF
KGYY 171742Z 1718/1818 28010G15KT P6SM OVC019
     FM180000 30008KT P6SM BKN020
     FM180800 31005KT P6SM SCT020
     FM181500 34004KT P6SM SCT250=



000
FTUS43 KLOT 171700 RRA
TAFORD
TAF
KORD 171742Z 1718/1824 29010G15KT P6SM OVC023
     FM180000 30008KT P6SM BKN020
     FM180800 31005KT P6SM SCT020
     FM181500 34004KT P6SM SCT250=



000
FTUS43 KLOT 171700 RRA
TAFDPA
TAF
KDPA 171742Z 1718/1818 27012G16KT P6SM OVC020
     FM180000 30007KT P6SM BKN020
     FM180800 31003KT P6SM SCT020
     FM181500 34004KT P6SM SCT250=



000
FTUS43 KLOT 171500 AAB
TAFGYY
TAF AMD
KGYY 171557Z 1716/1812 30012G17KT P6SM OVC017
     FM171800 29012KT P6SM OVC020
     FM180000 30008KT P6SM BKN020
     FM180800 31005KT P6SM SCT020=



000
FTUS43 KLOT 171500 AAB
TAFORD
TAF AMD
KORD 171557Z 1716/1818 31013G17KT P6SM OVC020
     FM171800 29012KT P6SM OVC020
     FM180000 30008KT P6SM BKN020
     FM180800 31005KT P6SM SCT020=



000
FTUS43 KLOT 171500 AAB
TAFRFD
TAF AMD
KRFD 171557Z 1716/1812 31012G17KT P6SM OVC020
     FM171800 30012KT P6SM OVC020
     FM180000 31006KT P6SM SCT020=



000
FTUS43 KLOT 171500 AAB
TAFGYY
TAF AMD
KGYY 171557Z 1716/1812 30012G17KT P6SM OVC017
     FM171800 29012KT P6SM OVC020
     FM180000 30008KT P6SM BKN020
     FM180800 31005KT P6SM SCT020=



000
FTUS43 KLOT 171500 AAB
TAFDPA
TAF AMD
KDPA 171557Z 1716/1812 29012G17KT P6SM OVC020
     FM171800 30012KT P6SM OVC020
     FM180000 30007KT P6SM BKN020
     FM180800 31003KT P6SM SCT020=



000
FTUS43 KLOT 171500 AAB
TAFMDW
TAF AMD
KMDW 171557Z 1716/1812 29011G17KT P6SM OVC020
     FM171800 29012KT P6SM OVC020
     FM180000 30008KT P6SM BKN020
     FM180800 31005KT P6SM SCT020=



000
FTUS43 KLOT 171400 AAA
TAFGYY
TAF AMD
KGYY 171409Z 1714/1812 30012G17KT P6SM OVC017
     FM171800 29012KT P6SM OVC020
     FM180000 30008KT P6SM BKN020
     FM180800 31005KT P6SM SCT020=



000
FTUS43 KLOT 171400 AAA
TAFGYY
TAF AMD
KGYY 171409Z 1714/1812 30012G17KT P6SM OVC017
     FM171800 29012KT P6SM OVC020
     FM180000 30008KT P6SM BKN020
     FM180800 31005KT P6SM SCT020=



000
FTUS43 KLOT 171400 AAA
TAFRFD
TAF AMD
KRFD 171409Z 1714/1812 30012G17KT P6SM OVC022
     FM171800 30012KT P6SM OVC020
     FM180000 31006KT P6SM SCT020=



000
FTUS43 KLOT 171400 AAA
TAFORD
TAF AMD
KORD 171409Z 1714/1818 29013G17KT P6SM OVC018
     FM171800 29012KT P6SM OVC020
     FM180000 30008KT P6SM BKN020
     FM180800 31005KT P6SM SCT020=



000
FTUS43 KLOT 171400 AAA
TAFMDW
TAF AMD
KMDW 171409Z 1714/1812 28011G17KT P6SM OVC016
     FM171800 29012KT P6SM OVC020
     FM180000 30008KT P6SM BKN020
     FM180800 31005KT P6SM SCT020=



000
FTUS43 KLOT 171400 AAA
TAFDPA
TAF AMD
KDPA 171409Z 1714/1812 28012G17KT P6SM OVC017
     FM171800 30012KT P6SM OVC020
     FM180000 30007KT P6SM BKN020
     FM180800 31003KT P6SM SCT020=



000
FTUS43 KLOT 171100
TAFGYY
TAF
KGYY 171125Z 1712/1812 29012G17KT P6SM OVC016
     FM171800 29012KT P6SM OVC020
     FM180000 30008KT P6SM BKN020
     FM180800 31005KT P6SM SCT020=



000
FTUS43 KLOT 171100
TAFORD
TAF
KORD 171125Z 1712/1818 29012G17KT P6SM OVC016
     FM171800 29012KT P6SM OVC020
     FM180000 30008KT P6SM BKN020
     FM180800 31005KT P6SM SCT020=



000
FTUS43 KLOT 171100
TAFMDW
TAF
KMDW 171125Z 1712/1812 29012G17KT P6SM OVC016
     FM171800 29012KT P6SM OVC020
     FM180000 30008KT P6SM BKN020
     FM180800 31005KT P6SM SCT020=



000
FTUS43 KLOT 171100
TAFDPA
TAF
KDPA 171125Z 1712/1812 30012G17KT P6SM OVC016
     FM171800 30012KT P6SM OVC020
     FM180000 30007KT P6SM BKN020
     FM180800 31003KT P6SM SCT020=



000
FTUS43 KLOT 171100
TAFRFD
TAF
KRFD 171125Z 1712/1812 30012G17KT P6SM OVC016
     FM171800 30012KT P6SM OVC020
     FM180000 31006KT P6SM SCT020=



000
FTUS43 KLOT 171100
TAFGYY
TAF
KGYY 171125Z 1712/1812 29012G17KT P6SM OVC016
     FM171800 29012KT P6SM OVC020
     FM180000 30008KT P6SM BKN020
     FM180800 31005KT P6SM SCT020=



    US Dept of Commerce
    National Oceanic and Atmospheric Administration
    National Weather Service
    1325 East West Highway
    Silver Spring, MD 20910
    Page Author: NWS Internet Services Team
Disclaimer
Information Quality
Credits
Glossary
Privacy Policy
Freedom of Information Act (FOIA)
About Us
Career Opportunities